Time;durP1;ratioP1;P1;durP2;ratioP2;P2;SDS_P1;SDS_P2;PMS_P1;PMS_P2;Temp;Humidity;BMP_temperature;BMP_pressure;BME280_temperature;BME280_humidity;BME280_pressure;Samples;Min_cycle;Max_cycle;Signal;HPM_P1;HPM_P2
2023/04/25 00:00:26;;;;;;;0.70;0.70;;;11.40;99.90;;;;;;5059731;28;20310;-64
2023/04/25 00:02:55;;;;;;;0.77;0.70;;;11.40;99.90;;;;;;5065016;28;20203;-64
2023/04/25 00:05:22;;;;;;;0.93;0.80;;;11.40;99.90;;;;;;5071672;28;20214;-63
2023/04/25 00:07:49;;;;;;;0.80;0.80;;;11.40;99.90;;;;;;5071178;28;20321;-63
2023/04/25 00:10:16;;;;;;;0.73;0.73;;;11.40;99.90;;;;;;5070795;28;20261;-63
2023/04/25 00:12:45;;;;;;;0.70;0.70;;;11.40;99.90;;;;;;5070768;28;20199;-64
2023/04/25 00:15:13;;;;;;;0.70;0.70;;;11.50;99.90;;;;;;5071404;28;20568;-62
2023/04/25 00:17:39;;;;;;;0.98;0.98;;;11.50;99.90;;;;;;5071047;28;20700;-64
2023/04/25 00:20:09;;;;;;;1.10;1.10;;;11.50;99.90;;;;;;5071232;28;20211;-62
2023/04/25 00:22:37;;;;;;;0.80;0.80;;;11.50;99.90;;;;;;5071070;28;20559;-64
2023/04/25 00:25:04;;;;;;;0.80;0.80;;;11.50;99.90;;;;;;5071293;28;20245;-63
2023/04/25 00:27:31;;;;;;;0.80;0.80;;;11.50;99.90;;;;;;5073992;28;20235;-63
2023/04/25 00:29:59;;;;;;;0.90;0.90;;;11.60;99.90;;;;;;5081707;28;20780;-62
2023/04/25 00:32:26;;;;;;;0.80;0.80;;;11.60;99.90;;;;;;5084819;28;20207;-63
2023/04/25 00:34:53;;;;;;;0.93;0.93;;;11.60;99.90;;;;;;5082661;28;20214;-64
2023/04/25 00:37:20;;;;;;;0.90;0.90;;;11.60;99.90;;;;;;5075564;28;20628;-63
2023/04/25 00:39:47;;;;;;;0.80;0.80;;;11.60;99.90;;;;;;5071503;28;20799;-63
2023/04/25 00:42:14;;;;;;;0.80;0.80;;;11.60;99.90;;;;;;5070473;28;20714;-65
2023/04/25 00:44:42;;;;;;;1.00;1.00;;;11.70;99.90;;;;;;5070950;28;20697;-63
2023/04/25 00:47:12;;;;;;;1.00;1.00;;;11.70;99.90;;;;;;5073925;28;20223;-64
2023/04/25 00:49:39;;;;;;;1.10;1.10;;;11.60;99.90;;;;;;5074121;28;20253;-63
2023/04/25 00:52:06;;;;;;;1.07;0.97;;;11.70;99.90;;;;;;5075221;28;20219;-64
2023/04/25 00:54:33;;;;;;;0.90;0.90;;;11.70;99.90;;;;;;5074440;28;20673;-63
2023/04/25 00:57:00;;;;;;;0.93;0.93;;;11.70;99.90;;;;;;5074994;28;20199;-63
2023/04/25 00:59:29;;;;;;;0.80;0.80;;;11.70;99.90;;;;;;5074275;28;20247;-63
2023/04/25 01:01:56;;;;;;;1.03;1.00;;;11.70;99.90;;;;;;5074410;28;20223;-63
2023/04/25 01:04:24;;;;;;;0.90;0.90;;;11.60;99.90;;;;;;5070280;28;20217;-62
2023/04/25 01:06:52;;;;;;;1.03;1.03;;;11.60;99.90;;;;;;5070103;28;20230;-63
2023/04/25 01:09:19;;;;;;;0.90;0.90;;;11.70;99.90;;;;;;5086125;28;20203;-63
2023/04/25 01:11:46;;;;;;;0.90;0.90;;;11.60;99.90;;;;;;5077250;28;20227;-63
2023/04/25 01:14:13;;;;;;;0.90;0.90;;;11.70;99.90;;;;;;5075985;28;20226;-64
2023/04/25 01:16:41;;;;;;;1.00;1.00;;;11.90;99.90;;;;;;5074506;28;20203;-64
2023/04/25 01:19:11;;;;;;;0.90;0.90;;;11.80;99.90;;;;;;5080745;28;20316;-64
2023/04/25 01:21:40;;;;;;;0.90;0.90;;;11.80;99.90;;;;;;5084611;28;20273;-66
2023/04/25 01:24:07;;;;;;;0.80;0.80;;;11.80;99.90;;;;;;5086929;28;20279;-64
2023/04/25 01:26:35;;;;;;;0.80;0.80;;;11.70;99.90;;;;;;5086939;28;20750;-65
2023/04/25 01:29:03;;;;;;;0.90;0.90;;;11.80;99.90;;;;;;5088895;28;20210;-65
2023/04/25 01:31:30;;;;;;;1.17;1.07;;;11.80;99.90;;;;;;5089359;28;20229;-64
2023/04/25 01:33:58;;;;;;;0.80;0.80;;;11.80;99.90;;;;;;5077610;28;20203;-64
2023/04/25 01:36:25;;;;;;;0.93;0.80;;;11.80;99.90;;;;;;5077456;28;20210;-64
2023/04/25 01:38:53;;;;;;;0.73;0.73;;;11.70;99.90;;;;;;5076704;28;20207;-65
2023/04/25 01:41:20;;;;;;;1.00;1.00;;;11.60;99.90;;;;;;5083333;28;20219;-65
2023/04/25 01:43:47;;;;;;;1.30;0.93;;;11.60;99.90;;;;;;5080109;28;20589;-65
2023/04/25 01:46:14;;;;;;;1.00;1.00;;;11.60;99.90;;;;;;5079939;28;20501;-64
2023/04/25 01:48:40;;;;;;;1.10;1.00;;;11.50;99.90;;;;;;5078625;28;20223;-65
2023/04/25 01:51:07;;;;;;;1.03;1.03;;;11.40;99.90;;;;;;5075713;28;20231;-65
2023/04/25 01:53:35;;;;;;;0.80;0.80;;;11.30;99.90;;;;;;5075511;28;20214;-64
2023/04/25 01:56:03;;;;;;;0.97;0.93;;;11.30;99.90;;;;;;5075428;28;20341;-64
2023/04/25 01:58:30;;;;;;;1.00;0.97;;;11.30;99.90;;;;;;5076039;28;20203;-66
2023/04/25 02:00:56;;;;;;;0.87;0.87;;;11.30;99.90;;;;;;5073434;28;20249;-66
2023/04/25 02:03:24;;;;;;;0.90;0.90;;;11.20;99.90;;;;;;5076444;28;20666;-65
2023/04/25 02:05:50;;;;;;;0.90;0.90;;;11.10;99.90;;;;;;5075694;28;20704;-66
2023/04/25 02:08:18;;;;;;;0.60;0.60;;;11.10;99.90;;;;;;5074983;28;20223;-65
2023/04/25 02:10:45;;;;;;;0.90;0.87;;;11.10;99.90;;;;;;5074032;28;20219;-65
2023/04/25 02:13:13;;;;;;;0.80;0.80;;;11.20;99.90;;;;;;5074595;28;20209;-63
2023/04/25 02:15:40;;;;;;;0.80;0.80;;;11.30;99.90;;;;;;5073888;28;20209;-68
2023/04/25 02:18:07;;;;;;;0.80;0.80;;;11.20;99.90;;;;;;5073459;28;20207;-65
2023/04/25 02:20:34;;;;;;;0.80;0.80;;;11.30;99.90;;;;;;5072497;28;20227;-64
2023/04/25 02:23:01;;;;;;;0.80;0.80;;;11.40;99.90;;;;;;5073133;28;20265;-65
2023/04/25 02:25:28;;;;;;;0.60;0.60;;;11.30;99.90;;;;;;5072961;28;20214;-65
2023/04/25 02:27:55;;;;;;;0.80;0.80;;;11.40;99.90;;;;;;5074516;28;20231;-65
2023/04/25 02:30:23;;;;;;;0.90;0.90;;;11.40;99.90;;;;;;5072954;28;20223;-65
2023/04/25 02:32:50;;;;;;;0.93;0.93;;;11.40;99.90;;;;;;5073223;28;20199;-67
2023/04/25 02:35:17;;;;;;;0.90;0.90;;;11.40;99.90;;;;;;5072891;28;20667;-66
2023/04/25 02:37:44;;;;;;;1.00;0.90;;;11.30;99.90;;;;;;5073353;28;20700;-64
2023/04/25 02:40:11;;;;;;;0.80;0.80;;;11.30;99.90;;;;;;5073113;28;20203;-65
2023/04/25 02:42:38;;;;;;;1.00;1.00;;;11.30;99.90;;;;;;5081556;28;20302;-65
2023/04/25 02:45:06;;;;;;;1.00;1.00;;;11.30;99.90;;;;;;5082638;28;20267;-63
2023/04/25 02:47:34;;;;;;;1.07;1.07;;;11.30;99.90;;;;;;5082692;28;20601;-64
2023/04/25 02:50:00;;;;;;;0.90;0.90;;;11.30;99.90;;;;;;5075618;28;20203;-66
2023/04/25 02:52:27;;;;;;;1.00;1.00;;;11.30;99.90;;;;;;5072052;28;20321;-65
2023/04/25 02:54:54;;;;;;;1.00;1.00;;;11.30;99.90;;;;;;5072277;28;20214;-65
2023/04/25 02:57:21;;;;;;;0.70;0.70;;;11.30;99.90;;;;;;5072460;28;20199;-66
2023/04/25 02:59:48;;;;;;;1.07;1.07;;;11.30;99.90;;;;;;5072049;28;20302;-63
2023/04/25 03:02:14;;;;;;;0.90;0.90;;;11.30;99.90;;;;;;5071945;28;20223;-63
2023/04/25 03:04:43;;;;;;;0.90;0.90;;;11.30;99.90;;;;;;5072191;28;20202;-65
2023/04/25 03:07:10;;;;;;;0.93;0.90;;;11.30;99.90;;;;;;5072665;28;20209;-65
2023/04/25 03:09:36;;;;;;;0.80;0.80;;;11.30;99.90;;;;;;5072219;28;20301;-64
2023/04/25 03:12:04;;;;;;;1.20;1.10;;;11.30;99.90;;;;;;5072383;28;20238;-63
2023/04/25 03:14:30;;;;;;;0.93;0.93;;;11.20;99.90;;;;;;5073016;28;20199;-65
2023/04/25 03:16:57;;;;;;;1.20;1.10;;;11.10;99.90;;;;;;5076047;28;20271;-66
2023/04/25 03:19:24;;;;;;;1.10;1.10;;;11.10;99.90;;;;;;5073546;28;20207;-65
2023/04/25 03:21:53;;;;;;;1.00;1.00;;;11.00;99.90;;;;;;5089705;28;20242;-66
2023/04/25 03:24:20;;;;;;;1.40;1.30;;;10.80;99.90;;;;;;5084126;28;20207;-65
2023/04/25 03:26:47;;;;;;;1.00;1.00;;;10.80;99.90;;;;;;5085020;28;20236;-65
2023/04/25 03:29:13;;;;;;;1.10;1.00;;;10.70;99.90;;;;;;5086125;28;20237;-64
2023/04/25 03:31:40;;;;;;;1.10;1.10;;;10.70;99.90;;;;;;5078276;28;20366;-66
2023/04/25 03:34:07;;;;;;;0.80;0.80;;;10.80;99.90;;;;;;5078188;28;20739;-64
2023/04/25 03:36:34;;;;;;;0.93;0.93;;;10.80;99.90;;;;;;5080057;28;20294;-66
2023/04/25 03:39:02;;;;;;;1.30;1.20;;;10.80;99.90;;;;;;5073636;28;20274;-64
2023/04/25 03:41:29;;;;;;;1.10;1.10;;;10.90;99.90;;;;;;5073041;28;20223;-65
2023/04/25 03:43:56;;;;;;;1.20;1.10;;;10.80;99.90;;;;;;5072754;28;20215;-65
2023/04/25 03:46:23;;;;;;;1.20;1.17;;;10.80;99.90;;;;;;5074566;28;20207;-66
2023/04/25 03:48:50;;;;;;;0.93;0.93;;;10.70;99.90;;;;;;5077391;28;20227;-64
2023/04/25 03:51:16;;;;;;;1.10;1.10;;;10.70;99.90;;;;;;5076763;28;20335;-64
2023/04/25 03:53:43;;;;;;;1.03;1.03;;;10.60;99.90;;;;;;5077254;28;20207;-65
2023/04/25 03:56:11;;;;;;;1.20;1.20;;;10.50;99.90;;;;;;5077432;28;20207;-64
2023/04/25 03:58:38;;;;;;;1.10;1.10;;;10.50;99.90;;;;;;5079467;28;20266;-65
2023/04/25 04:01:07;;;;;;;1.17;1.17;;;10.40;99.90;;;;;;5078267;28;20221;-64
2023/04/25 04:03:34;;;;;;;1.30;1.20;;;10.30;99.90;;;;;;5078503;28;20266;-65
2023/04/25 04:06:01;;;;;;;1.30;1.20;;;10.30;99.90;;;;;;5077561;28;20203;-64
2023/04/25 04:08:28;;;;;;;3.37;1.20;;;10.30;99.90;;;;;;5075235;28;20227;-64
2023/04/25 04:10:55;;;;;;;1.00;1.00;;;10.20;99.90;;;;;;5074568;28;20245;-64
2023/04/25 04:13:23;;;;;;;1.10;1.10;;;10.20;99.90;;;;;;5076071;28;20703;-63
2023/04/25 04:15:50;;;;;;;0.90;0.90;;;10.30;99.90;;;;;;5073805;28;20752;-65
2023/04/25 04:18:17;;;;;;;1.10;1.10;;;10.30;99.90;;;;;;5074083;28;20593;-63
2023/04/25 04:20:44;;;;;;;0.97;0.97;;;10.30;99.90;;;;;;5072837;28;20227;-65
2023/04/25 04:23:11;;;;;;;1.00;1.00;;;10.30;99.90;;;;;;5071603;28;20290;-65
2023/04/25 04:25:39;;;;;;;1.10;1.10;;;10.40;99.90;;;;;;5073449;28;20245;-65
2023/04/25 04:28:07;;;;;;;1.00;1.00;;;10.50;99.90;;;;;;5076213;28;20631;-64
2023/04/25 04:30:37;;;;;;;1.40;1.30;;;10.40;99.90;;;;;;5075309;28;20610;-64
2023/04/25 04:33:04;;;;;;;1.40;1.30;;;10.40;99.90;;;;;;5079393;28;20302;-64
2023/04/25 04:35:31;;;;;;;1.50;1.40;;;10.40;99.90;;;;;;5076506;28;20297;-63
2023/04/25 04:37:57;;;;;;;1.20;1.20;;;10.40;99.90;;;;;;5076756;28;20202;-63
2023/04/25 04:40:25;;;;;;;1.07;1.07;;;10.40;99.90;;;;;;5074724;28;20855;-63
2023/04/25 04:42:53;;;;;;;0.97;0.97;;;10.40;99.90;;;;;;5075438;28;20218;-64
2023/04/25 04:45:20;;;;;;;0.90;0.90;;;10.40;99.90;;;;;;5075682;28;20218;-63
2023/04/25 04:47:49;;;;;;;1.43;1.33;;;10.40;99.90;;;;;;5077724;28;20573;-62
2023/04/25 04:50:16;;;;;;;1.40;1.30;;;10.40;99.90;;;;;;5074643;28;20330;-64
2023/04/25 04:52:43;;;;;;;1.07;1.07;;;10.30;99.90;;;;;;5075424;28;20208;-63
2023/04/25 04:55:10;;;;;;;1.03;1.03;;;10.30;99.90;;;;;;5075241;28;20213;-64
2023/04/25 04:57:38;;;;;;;1.00;1.00;;;10.30;99.90;;;;;;5076110;28;20233;-64
2023/04/25 05:00:10;;;;;;;1.00;1.00;;;10.30;99.90;;;;;;5076042;28;20731;-64
2023/04/25 05:02:37;;;;;;;0.87;0.87;;;10.40;99.90;;;;;;5075906;28;20210;-62
2023/04/25 05:05:07;;;;;;;1.00;1.00;;;10.30;99.90;;;;;;5076134;28;20204;-63
2023/04/25 05:07:34;;;;;;;1.00;1.00;;;10.30;99.90;;;;;;5075787;28;20298;-64
2023/04/25 05:10:01;;;;;;;1.20;1.10;;;10.30;99.90;;;;;;5074262;28;20226;-63
2023/04/25 05:12:27;;;;;;;0.90;0.90;;;10.20;99.90;;;;;;5075478;28;20203;-63
2023/04/25 05:14:54;;;;;;;1.10;1.10;;;10.10;99.90;;;;;;5075569;28;20207;-63
2023/04/25 05:17:21;;;;;;;1.00;1.00;;;10.10;99.90;;;;;;5074425;28;20207;-64
2023/04/25 05:19:48;;;;;;;0.90;0.90;;;10.10;99.90;;;;;;5073042;28;20206;-63
2023/04/25 05:22:17;;;;;;;1.10;1.10;;;10.10;99.90;;;;;;5073763;28;20223;-63
2023/04/25 05:24:44;;;;;;;0.97;0.97;;;10.10;99.90;;;;;;5073924;28;20685;-63
2023/04/25 05:27:10;;;;;;;0.90;0.90;;;10.20;99.90;;;;;;5073643;28;20578;-62
2023/04/25 05:29:37;;;;;;;1.10;1.10;;;10.20;99.90;;;;;;5072892;28;20235;-63
2023/04/25 05:32:05;;;;;;;1.00;1.00;;;10.20;99.90;;;;;;5073304;28;20223;-62
2023/04/25 05:34:32;;;;;;;0.70;0.70;;;10.20;99.90;;;;;;5074493;28;20215;-62
2023/04/25 05:36:58;;;;;;;0.80;0.80;;;10.20;99.90;;;;;;5073981;28;20799;-64
2023/04/25 05:39:27;;;;;;;1.03;1.03;;;10.20;99.90;;;;;;5074573;28;20207;-62
2023/04/25 05:41:53;;;;;;;0.80;0.80;;;10.20;99.90;;;;;;5074053;28;20275;-63
2023/04/25 05:44:20;;;;;;;1.73;0.90;;;10.30;99.90;;;;;;5076520;28;20243;-64
2023/04/25 05:46:47;;;;;;;0.90;0.90;;;10.30;99.90;;;;;;5083795;28;20207;-63
2023/04/25 05:49:14;;;;;;;0.90;0.90;;;10.30;99.90;;;;;;5081687;28;20229;-63
2023/04/25 05:51:41;;;;;;;0.87;0.87;;;10.30;99.90;;;;;;5087895;28;20315;-63
2023/04/25 05:54:08;;;;;;;0.90;0.90;;;10.20;99.90;;;;;;5084757;28;20290;-63
2023/04/25 05:56:36;;;;;;;0.70;0.70;;;10.20;99.90;;;;;;5076198;28;20290;-63
2023/04/25 05:59:03;;;;;;;1.00;1.00;;;10.10;99.90;;;;;;5074143;28;20203;-64
2023/04/25 06:01:29;;;;;;;0.75;0.75;;;10.10;99.90;;;;;;5060847;28;20224;-63
2023/04/25 06:03:56;;;;;;;1.13;1.10;;;10.10;99.90;;;;;;5053666;28;20219;-63
2023/04/25 06:06:23;;;;;;;0.70;0.70;;;10.10;99.90;;;;;;5053562;28;20218;-63
2023/04/25 06:08:50;;;;;;;0.83;0.83;;;10.10;99.90;;;;;;5052718;28;20223;-64
2023/04/25 06:11:17;;;;;;;0.80;0.80;;;10.10;99.90;;;;;;5051968;28;20305;-66
2023/04/25 06:13:45;;;;;;;0.77;0.77;;;10.20;99.90;;;;;;5065998;28;20239;-63
2023/04/25 06:16:12;;;;;;;0.90;0.90;;;10.30;99.90;;;;;;5052787;28;20281;-64
2023/04/25 06:18:39;;;;;;;0.70;0.70;;;10.40;99.90;;;;;;5051585;28;20204;-64
2023/04/25 06:21:06;;;;;;;0.90;0.90;;;10.40;99.90;;;;;;5051614;28;20220;-63
2023/04/25 06:23:33;;;;;;;0.90;0.90;;;10.50;99.90;;;;;;5052411;28;20203;-63
2023/04/25 06:26:00;;;;;;;0.77;0.77;;;10.50;99.90;;;;;;5052509;28;20586;-64
2023/04/25 06:28:26;;;;;;;1.00;1.00;;;10.50;99.90;;;;;;5052255;28;20227;-64
2023/04/25 06:30:55;;;;;;;0.93;0.93;;;10.50;99.90;;;;;;5051161;28;20224;-62
2023/04/25 06:33:22;;;;;;;1.10;1.10;;;10.40;99.90;;;;;;5051737;28;20208;-63
2023/04/25 06:35:48;;;;;;;1.33;1.23;;;10.20;99.90;;;;;;5051248;28;20211;-64
2023/04/25 06:38:16;;;;;;;1.27;1.17;;;10.10;99.90;;;;;;5053233;28;20204;-63
2023/04/25 06:40:43;;;;;;;1.30;1.20;;;10.00;99.90;;;;;;5051864;28;20227;-64
2023/04/25 06:43:10;;;;;;;1.30;1.30;;;9.90;99.90;;;;;;5053295;28;20218;-63
2023/04/25 06:45:36;;;;;;;1.23;1.20;;;9.80;99.90;;;;;;5052988;28;20207;-62
2023/04/25 06:48:05;;;;;;;1.33;1.20;;;9.70;99.90;;;;;;5052151;28;20211;-63
2023/04/25 06:50:32;;;;;;;1.10;1.10;;;9.60;99.90;;;;;;5052230;28;20785;-64
2023/04/25 06:52:59;;;;;;;1.10;1.10;;;9.70;99.90;;;;;;5053320;28;20210;-62
2023/04/25 06:55:26;;;;;;;1.43;1.00;;;9.70;99.90;;;;;;5053402;28;20206;-62
2023/04/25 06:57:52;;;;;;;1.00;1.00;;;9.70;99.90;;;;;;5052850;28;20203;-63
2023/04/25 07:00:20;;;;;;;1.10;1.10;;;9.80;99.90;;;;;;5052076;28;20220;-63
2023/04/25 07:02:47;;;;;;;0.90;0.90;;;9.70;99.90;;;;;;5056752;28;20572;-64
2023/04/25 07:05:15;;;;;;;1.10;1.10;;;9.70;99.90;;;;;;5072436;28;20230;-63
2023/04/25 07:07:42;;;;;;;1.20;1.20;;;9.70;99.90;;;;;;5072376;28;20250;-63
2023/04/25 07:10:09;;;;;;;1.33;1.23;;;9.60;99.90;;;;;;5071448;28;20718;-62
2023/04/25 07:12:36;;;;;;;1.23;1.23;;;9.50;99.90;;;;;;5081275;28;20297;-64
2023/04/25 07:15:05;;;;;;;1.48;1.38;;;9.50;99.90;;;;;;5081099;28;20233;-64
2023/04/25 07:17:33;;;;;;;1.30;1.30;;;9.30;99.90;;;;;;5075064;28;20203;-65
2023/04/25 07:20:00;;;;;;;1.30;1.30;;;9.40;99.90;;;;;;5072118;28;20199;-63
2023/04/25 07:22:28;;;;;;;1.23;1.23;;;9.30;99.90;;;;;;5072127;28;20606;-62
2023/04/25 07:24:55;;;;;;;1.23;1.23;;;9.20;99.90;;;;;;5072340;28;20305;-63
2023/04/25 07:27:22;;;;;;;1.00;1.00;;;9.10;99.90;;;;;;5073170;28;20203;-65
2023/04/25 07:29:49;;;;;;;1.00;1.00;;;9.10;99.90;;;;;;5081215;28;20229;-65
2023/04/25 07:32:16;;;;;;;1.27;1.27;;;9.10;99.90;;;;;;5071559;28;20229;-64
2023/04/25 07:34:43;;;;;;;1.00;1.00;;;9.00;99.90;;;;;;5071812;28;20203;-64
2023/04/25 07:37:10;;;;;;;1.00;1.00;;;8.90;99.90;;;;;;5072288;28;20199;-64
2023/04/25 07:39:38;;;;;;;0.80;0.80;;;9.00;99.90;;;;;;5071406;28;20294;-63
2023/04/25 07:42:07;;;;;;;1.63;0.90;;;8.90;99.90;;;;;;5071715;28;20227;-63
2023/04/25 07:44:38;;;;;;;0.80;0.80;;;8.90;99.90;;;;;;5071990;28;20599;-64
2023/04/25 07:47:06;;;;;;;0.80;0.80;;;8.80;99.90;;;;;;5073039;28;20678;-63
2023/04/25 07:49:33;;;;;;;0.57;0.57;;;8.70;99.90;;;;;;5071441;28;20226;-64
2023/04/25 07:52:00;;;;;;;0.67;0.67;;;8.70;99.90;;;;;;5074972;28;20222;-64
2023/04/25 07:54:27;;;;;;;0.40;0.40;;;8.70;99.90;;;;;;5074914;28;20210;-64
2023/04/25 07:56:55;;;;;;;0.40;0.40;;;8.70;99.90;;;;;;5076255;28;20211;-65
2023/04/25 07:59:22;;;;;;;0.30;0.30;;;8.70;99.90;;;;;;5081700;28;20296;-64
2023/04/25 08:01:49;;;;;;;0.40;0.40;;;8.60;99.90;;;;;;5086984;28;20222;-63
2023/04/25 08:04:16;;;;;;;0.33;0.33;;;8.60;99.90;;;;;;5083738;28;20218;-64
2023/04/25 08:06:43;;;;;;;0.40;0.40;;;8.50;99.90;;;;;;5076580;28;20666;-64
2023/04/25 08:09:10;;;;;;;0.30;0.30;;;8.50;99.90;;;;;;5071218;28;20223;-64
2023/04/25 08:11:37;;;;;;;0.80;0.80;;;8.40;99.90;;;;;;5071917;28;20219;-63
2023/04/25 08:14:06;;;;;;;0.40;0.40;;;8.40;99.90;;;;;;5071377;28;20621;-64
2023/04/25 08:16:33;;;;;;;0.20;0.20;;;8.30;99.90;;;;;;5071512;28;20225;-62
2023/04/25 08:19:00;;;;;;;0.30;0.30;;;8.30;99.90;;;;;;5071633;28;20206;-62
2023/04/25 08:21:27;;;;;;;0.40;0.40;;;8.30;99.90;;;;;;5070660;28;20226;-64
2023/04/25 08:23:54;;;;;;;0.30;0.30;;;8.10;99.90;;;;;;5071669;28;20887;-64
2023/04/25 08:26:21;;;;;;;0.40;0.40;;;8.10;99.90;;;;;;5071604;28;20203;-64
2023/04/25 08:28:48;;;;;;;0.45;0.45;;;8.10;99.90;;;;;;5071581;28;20210;-64
2023/04/25 08:31:16;;;;;;;0.70;0.70;;;8.10;99.90;;;;;;5070141;28;20237;-64
2023/04/25 08:33:43;;;;;;;0.70;0.70;;;8.10;99.90;;;;;;5071362;28;20252;-62
2023/04/25 08:36:10;;;;;;;0.40;0.40;;;8.20;99.90;;;;;;5071409;28;20207;-64
2023/04/25 08:38:37;;;;;;;0.40;0.40;;;8.40;99.90;;;;;;5071273;28;20211;-64
2023/04/25 08:41:06;;;;;;;0.30;0.30;;;8.40;99.90;;;;;;5070738;28;20217;-64
2023/04/25 08:43:33;;;;;;;0.40;0.40;;;8.40;99.90;;;;;;5071204;28;20700;-62
2023/04/25 08:46:01;;;;;;;0.30;0.30;;;8.40;99.90;;;;;;5071225;28;20207;-65
2023/04/25 08:48:33;;;;;;;0.30;0.30;;;8.60;99.90;;;;;;5071120;28;20230;-63
2023/04/25 08:51:02;;;;;;;0.47;0.47;;;8.70;99.90;;;;;;5070417;28;20267;-63
2023/04/25 08:53:31;;;;;;;0.30;0.30;;;8.60;99.90;;;;;;5070991;28;20207;-65
2023/04/25 08:56:01;;;;;;;0.60;0.60;;;8.50;99.90;;;;;;5071589;28;20229;-63
2023/04/25 08:58:29;;;;;;;0.40;0.40;;;8.40;99.90;;;;;;5071453;28;20214;-64
2023/04/25 09:00:55;;;;;;;0.30;0.30;;;8.60;99.90;;;;;;5070140;28;20362;-64
2023/04/25 09:03:22;;;;;;;0.53;0.53;;;8.70;99.90;;;;;;5070843;28;20582;-63
2023/04/25 09:05:52;;;;;;;0.50;0.50;;;8.70;99.90;;;;;;5071116;28;20203;-64
2023/04/25 09:08:19;;;;;;;0.70;0.70;;;8.80;99.90;;;;;;5070920;28;20219;-63
2023/04/25 09:10:46;;;;;;;0.30;0.30;;;8.90;99.90;;;;;;5071286;28;20326;-63
2023/04/25 09:13:14;;;;;;;0.33;0.33;;;8.90;99.90;;;;;;5074737;28;20199;-62
2023/04/25 09:15:49;;;;;;;0.40;0.40;;;9.00;99.90;;;;;;5075016;28;20670;-63
2023/04/25 09:18:24;;;;;;;0.40;0.40;;;9.00;99.90;;;;;;5075041;28;20234;-64
2023/04/25 09:20:53;;;;;;;0.40;0.40;;;9.00;99.90;;;;;;5074063;28;20310;-64
2023/04/25 09:23:21;;;;;;;0.40;0.40;;;8.90;99.90;;;;;;5074887;28;20218;-64
2023/04/25 09:25:49;;;;;;;0.43;0.43;;;8.80;99.90;;;;;;5074321;28;20207;-63
2023/04/25 09:28:16;;;;;;;3.17;1.40;;;8.80;99.90;;;;;;5074797;28;20214;-63
2023/04/25 09:30:43;;;;;;;2.03;1.60;;;8.80;99.90;;;;;;5073610;28;20237;-64
2023/04/25 09:33:11;;;;;;;1.00;1.00;;;8.80;99.90;;;;;;5074528;28;20329;-64
2023/04/25 09:35:39;;;;;;;2.05;0.73;;;8.80;99.90;;;;;;5074438;28;20205;-64
2023/04/25 09:38:12;;;;;;;3.57;1.50;;;8.90;99.90;;;;;;5074533;28;20246;-64
2023/04/25 09:40:43;;;;;;;1.43;0.80;;;9.00;99.90;;;;;;5073819;28;20264;-63
2023/04/25 09:43:20;;;;;;;0.70;0.70;;;9.00;99.90;;;;;;5074258;28;20586;-62
2023/04/25 09:45:47;;;;;;;0.50;0.50;;;9.00;99.90;;;;;;5075047;28;20236;-64
2023/04/25 09:48:19;;;;;;;0.40;0.40;;;8.90;99.90;;;;;;5084043;28;20203;-62
2023/04/25 09:50:46;;;;;;;0.70;0.70;;;8.70;99.90;;;;;;5074000;28;20316;-63
2023/04/25 09:53:14;;;;;;;0.30;0.30;;;8.60;99.90;;;;;;5073015;28;20229;-63
2023/04/25 09:55:43;;;;;;;0.60;0.60;;;8.60;99.90;;;;;;5073133;28;20286;-64
2023/04/25 09:58:12;;;;;;;0.97;0.70;;;8.60;99.90;;;;;;5073069;28;20596;-63
2023/04/25 10:00:39;;;;;;;0.50;0.50;;;8.50;99.90;;;;;;5072408;28;20252;-62
2023/04/25 10:03:07;;;;;;;0.30;0.30;;;8.50;99.90;;;;;;5073158;28;20199;-64
2023/04/25 10:05:37;;;;;;;0.50;0.50;;;8.40;99.90;;;;;;5073549;28;20203;-64
2023/04/25 10:08:05;;;;;;;0.40;0.40;;;8.40;99.90;;;;;;5081176;28;20195;-64
2023/04/25 10:10:36;;;;;;;0.30;0.30;;;8.30;99.90;;;;;;5088273;28;20285;-66
2023/04/25 10:13:05;;;;;;;0.30;0.30;;;8.30;99.90;;;;;;5086310;28;20183;-68
2023/04/25 10:15:35;;;;;;;0.30;0.30;;;8.20;99.90;;;;;;5085340;28;20199;-63
2023/04/25 10:18:02;;;;;;;0.30;0.30;;;8.20;99.90;;;;;;5085406;28;20203;-65
2023/04/25 10:20:29;;;;;;;0.40;0.40;;;8.20;99.90;;;;;;5084983;28;20215;-64
2023/04/25 10:23:03;;;;;;;0.20;0.20;;;8.20;99.90;;;;;;5075865;28;20199;-63
2023/04/25 10:25:30;;;;;;;0.30;0.30;;;8.20;99.90;;;;;;5074725;28;20205;-64
2023/04/25 10:28:01;;;;;;;0.37;0.37;;;8.20;99.90;;;;;;5075013;28;20203;-64
2023/04/25 10:30:28;;;;;;;0.40;0.40;;;8.30;99.90;;;;;;5075852;28;20238;-64
2023/04/25 10:32:56;;;;;;;0.20;0.20;;;8.40;99.90;;;;;;5077265;28;20298;-62
2023/04/25 10:35:27;;;;;;;0.47;0.47;;;8.70;99.90;;;;;;5086481;28;20193;-64
2023/04/25 10:38:03;;;;;;;0.20;0.20;;;8.90;99.90;;;;;;5098057;28;20239;-63
2023/04/25 10:40:31;;;;;;;0.30;0.30;;;9.10;99.90;;;;;;5093971;28;20229;-63
2023/04/25 10:43:36;;;;;;;0.40;0.40;;;9.20;99.90;;;;;;5096501;28;20215;-64
2023/04/25 10:46:03;;;;;;;0.40;0.40;;;9.40;99.90;;;;;;5090970;28;20178;-63
2023/04/25 10:48:31;;;;;;;0.50;0.50;;;9.50;99.90;;;;;;5081054;28;20214;-63
2023/04/25 10:51:11;;;;;;;0.30;0.30;;;9.60;99.90;;;;;;5074044;28;20227;-64
2023/04/25 10:53:38;;;;;;;0.83;0.30;;;9.70;99.90;;;;;;5073829;28;20662;-64
2023/04/25 10:56:12;;;;;;;0.30;0.30;;;9.90;99.90;;;;;;5073929;28;20287;-64
2023/04/25 10:58:44;;;;;;;1.13;0.30;;;9.90;99.90;;;;;;5073722;28;20207;-63
2023/04/25 11:01:12;;;;;;;0.30;0.30;;;9.80;99.90;;;;;;5072035;28;20223;-64
2023/04/25 11:03:42;;;;;;;0.30;0.30;;;9.80;99.90;;;;;;5072662;28;20222;-63
2023/04/25 11:06:16;;;;;;;0.37;0.37;;;9.90;99.90;;;;;;5075950;28;20670;-63
2023/04/25 11:08:50;;;;;;;0.30;0.30;;;10.00;99.90;;;;;;5079637;28;20217;-63
2023/04/25 11:11:18;;;;;;;0.10;0.10;;;10.10;99.90;;;;;;5079372;28;20640;-63
2023/04/25 11:13:48;;;;;;;0.40;0.40;;;10.20;99.90;;;;;;5078839;28;20203;-63
2023/04/25 11:16:15;;;;;;;0.20;0.20;;;10.30;99.90;;;;;;5078314;28;20207;-64
2023/04/25 11:18:42;;;;;;;0.27;0.27;;;10.40;99.90;;;;;;5076762;28;20666;-64
2023/04/25 11:21:10;;;;;;;0.40;0.40;;;10.30;99.90;;;;;;5072679;28;20225;-64
2023/04/25 11:23:37;;;;;;;0.30;0.30;;;10.30;99.90;;;;;;5072666;28;20257;-62
2023/04/25 11:26:04;;;;;;;0.30;0.30;;;10.20;99.90;;;;;;5073709;28;20697;-63
2023/04/25 11:28:31;;;;;;;0.37;0.30;;;10.10;99.90;;;;;;5072763;28;20210;-63
2023/04/25 11:30:59;;;;;;;0.30;0.30;;;10.00;99.90;;;;;;5070855;28;20842;-64
2023/04/25 11:33:27;;;;;;;0.33;0.33;;;9.90;99.90;;;;;;5070863;28;20294;-66
2023/04/25 11:35:56;;;;;;;0.30;0.30;;;10.00;99.90;;;;;;5083727;28;20218;-63
2023/04/25 11:38:23;;;;;;;0.30;0.30;;;10.00;99.90;;;;;;5071222;28;20203;-64
2023/04/25 11:40:54;;;;;;;0.30;0.30;;;10.10;99.90;;;;;;5070341;28;20215;-63
2023/04/25 11:43:22;;;;;;;0.20;0.20;;;10.10;99.90;;;;;;5072101;28;20301;-62
2023/04/25 11:45:50;;;;;;;0.40;0.40;;;10.20;99.90;;;;;;5071930;28;20578;-64
2023/04/25 11:48:18;;;;;;;0.37;0.37;;;10.40;99.90;;;;;;5072180;28;20207;-63
2023/04/25 11:50:45;;;;;;;0.20;0.20;;;10.50;99.90;;;;;;5071438;28;20262;-62
2023/04/25 11:53:12;;;;;;;0.30;0.30;;;10.60;99.90;;;;;;5072139;28;20207;-64
2023/04/25 11:55:39;;;;;;;0.50;0.50;;;10.60;99.90;;;;;;5071904;28;20410;-62
2023/04/25 11:58:08;;;;;;;0.27;0.27;;;10.80;99.90;;;;;;5072166;28;20207;-64
2023/04/25 12:00:35;;;;;;;0.33;0.33;;;10.80;99.90;;;;;;5072130;28;20220;-63
2023/04/25 12:03:02;;;;;;;0.40;0.40;;;11.10;99.90;;;;;;5071508;28;20207;-64
2023/04/25 12:05:33;;;;;;;0.37;0.37;;;11.30;99.90;;;;;;5071778;28;20207;-64
2023/04/25 12:08:11;;;;;;;0.30;0.30;;;11.50;99.90;;;;;;5071756;28;20230;-64
2023/04/25 12:10:39;;;;;;;0.43;0.43;;;11.70;99.90;;;;;;5070324;28;20233;-63
2023/04/25 12:13:22;;;;;;;0.30;0.30;;;11.80;99.90;;;;;;5072002;28;20203;-64
2023/04/25 12:15:49;;;;;;;0.50;0.50;;;12.10;99.90;;;;;;5071838;28;20297;-64
2023/04/25 12:18:19;;;;;;;0.57;0.57;;;12.20;99.90;;;;;;5072650;28;20203;-65
2023/04/25 12:20:47;;;;;;;0.50;0.50;;;11.90;99.90;;;;;;5058179;28;20226;-63
2023/04/25 12:23:14;;;;;;;0.47;0.47;;;11.90;99.90;;;;;;5051136;28;20234;-64
2023/04/25 12:25:43;;;;;;;0.47;0.47;;;11.80;99.90;;;;;;5053171;28;20208;-64
2023/04/25 12:28:14;;;;;;;0.77;0.77;;;11.90;99.90;;;;;;5050753;28;20215;-64
2023/04/25 12:30:57;;;;;;;0.47;0.47;;;12.20;99.90;;;;;;5049937;28;20594;-64
2023/04/25 12:33:24;;;;;;;0.53;0.53;;;12.70;99.90;;;;;;5049581;28;20679;-62
2023/04/25 12:35:53;;;;;;;0.70;0.70;;;13.10;99.90;;;;;;5054405;28;20618;-64
2023/04/25 12:38:24;;;;;;;0.50;0.50;;;13.40;99.90;;;;;;5069266;28;20210;-66
2023/04/25 12:40:51;;;;;;;0.60;0.60;;;13.80;99.90;;;;;;5070219;28;20237;-64
2023/04/25 12:43:18;;;;;;;0.67;0.67;;;14.20;99.90;;;;;;5071644;28;20215;-64
2023/04/25 12:45:45;;;;;;;0.40;0.40;;;14.50;99.90;;;;;;5071140;28;20207;-63
2023/04/25 12:48:12;;;;;;;0.73;0.70;;;14.50;99.90;;;;;;5075018;28;20203;-63
2023/04/25 12:50:39;;;;;;;0.73;0.73;;;14.50;99.90;;;;;;5073970;28;20252;-62
2023/04/25 12:53:07;;;;;;;0.60;0.60;;;14.30;99.90;;;;;;5075665;28;20208;-64